This is the latest recevied weather packets stored in our database for station/object KR4KUV. If no packets are shown the sender has not sent any weather packets the latest 10 day(s).
| Time | Temp. | Humidity | Pressure | Rain* | Wind** | Luminosity | Snow |
|---|---|---|---|---|---|---|---|
| 1787507086 | 30.56° C | 56% | 1016.9 hPa | 0 mm | - | 742 W/m² | - |
| 1787506782 | 30.56° C | 56% | 1017 hPa | 0 mm | - | 735 W/m² | - |
| 1787506478 | 30.56° C | 53% | 1016.8 hPa | 0 mm | - | 741 W/m² | - |
| 1787506173 | 30° C | 56% | 1017.1 hPa | 0 mm | - | 771 W/m² | - |
| 1787505869 | 30° C | 53% | 1017.1 hPa | 0 mm | - | 760 W/m² | - |
| 1787505564 | 30.56° C | 53% | 1017.1 hPa | 0 mm | - | 751 W/m² | - |
| 1787505259 | 29.44° C | 56% | 1017.2 hPa | 0 mm | - | 738 W/m² | - |
| 1787504959 | 29.44° C | 56% | 1017.2 hPa | 0 mm | - | 731 W/m² | - |
| 1787504654 | 30° C | 60% | 1017.4 hPa | 0 mm | - | 728 W/m² | - |
| 1787504350 | 30° C | 58% | 1017.2 hPa | 0 mm | - | 742 W/m² | - |
| 1787504046 | 29.44° C | 58% | 1017.3 hPa | 0 mm | - | 723 W/m² | - |
| 1787503746 | 30° C | 59% | 1017.4 hPa | 0 mm | - | 709 W/m² | - |
| 1787503442 | 29.44° C | 57% | 1017.5 hPa | 0 mm | - | 705 W/m² | - |
| 1787503138 | 29.44° C | 62% | 1017.7 hPa | 0 mm | - | 704 W/m² | - |
| 1787502834 | 28.89° C | 58% | 1017.5 hPa | 0 mm | - | 695 W/m² | - |
| 1787502534 | 28.89° C | 59% | 1017.6 hPa | 0 mm | - | 682 W/m² | - |
| 1787502233 | 29.44° C | 60% | 1017.8 hPa | 0 mm | - | 672 W/m² | - |
| 1787501929 | 29.44° C | 62% | 1017.7 hPa | 0 mm | - | 660 W/m² | - |
| 1787501625 | 28.89° C | 63% | 1017.8 hPa | 0 mm | - | 657 W/m² | - |
| 1787501320 | 28.89° C | 61% | 1017.9 hPa | 0 mm | - | 651 W/m² | - |
| 1787501017 | 28.89° C | 59% | 1017.9 hPa | 0 mm | - | 644 W/m² | - |
| 1787500712 | 28.89° C | 60% | 1018.1 hPa | 0 mm | - | 633 W/m² | - |
| 1787500408 | 28.89° C | 58% | 1017.9 hPa | 0 mm | - | 627 W/m² | - |
| 1787500107 | 28.89° C | 58% | 1017.9 hPa | 0 mm | - | 619 W/m² | - |
| 1787499801 | 28.89° C | 64% | 1017.9 hPa | 0 mm | - | 609 W/m² | - |
* Rain latest hour (hover to see other rain measurements)
** Current wind speed in m/s (hover to see current wind gust speed)